Wayland, MA (01778)

11:17 AM EST on November 26, 2014 (GMT -0500)
Claypit Hill | Change Station
CLOSE
Current Station
Personal Weather Station
Location: Wayland, MA
Elevation: 250 ft
Nearby Weather Stations
Active Advisory: Winter Storm Warning

Elev 250 ft 42.36 °N, 71.36 °W | Updated 7 seconds ago

Rain
Rain
35.6 °F
Feels Like 36 °F
N
0.0
Wind Variable Wind from NE
Gusts 2.0 mph

Today
High -- | Low -- °F
--% Chance of Precip.
Yesterday
High -- | Low -- °F
Precip. -- in
6:49 AM 4:15 PM
Waxing Crescent, 20% visible
Pressure 30.16 in
Visibility 2.5 miles
Clouds Mostly Cloudy 1900 ft
Overcast 2400 ft
Windchill 36 °F
Dew Point 32 °F
Humidity 87%
Rainfall 0.11 in
Snow Depth Not available.
UV 1 out of 12
Pollen .10 out of 12
Air Quality Not available.
Flu Activity Not available.
SPECI KBED 261608Z 01005KT 2 1/2SM RA BR BKN019 OVC024 03/01 A3016 RMK AO2 P0003 T00280011

More Conditions Fewer Conditions

Pressure 30.16 in
Visibility 2.5 miles
Clouds Mostly Cloudy 1900 ft
Overcast 2400 ft
Windchill 36 °F
Dew Point 32 °F
Humidity 87%
Rainfall 0.11 in
Snow Depth Not available.
UV 1 out of 12
Pollen .10 out of 12
Air Quality Not available.
Flu Activity Not available.
SPECI KBED 261608Z 01005KT 2 1/2SM RA BR BKN019 OVC024 03/01 A3016 RMK AO2 P0003 T00280011

More Conditions Fewer Conditions

10-Day Weather Forecast

Almanac

Astronomy

Nov. 26, 2014 Rise Set
Actual Time
Civil Twilight
Nautical Twilight
Astronomical Twilight
Moon
Length of Visible Light
Length of Day
Tomorrow will be .
, % of the Moon is Illuminated

Today's Extremes

State Highs State Lows

Community

WunderPhotos

Upload Photos

1,773,780 photos uploaded!

WunderBlogs® & News

Nearby

Air Quality

  Air Quality AQ Index Pollutant
Not available.

Snow Depth

Station Depth Elevation

Earthquake Activity

City Distance Mag. Time & Date
Minimum magnitude displayed is 2.5.

Coastal Water Temperatures

Place Temperature

Nearby Weather Stations